Time;durP1;ratioP1;P1;durP2;ratioP2;P2;SDS_P1;SDS_P2;PMS_P1;PMS_P2;Temp;Humidity;BMP_temperature;BMP_pressure;BME280_temperature;BME280_humidity;BME280_pressure;Samples;Min_cycle;Max_cycle;Signal;HPM_P1;HPM_P2
2021/12/23 00:00:46;;;;;;;22.98;7.33;;;;;;;-8.10;65.66;102213.25;1920837;75;21087;-65
2021/12/23 00:03:15;;;;;;;15.93;5.72;;;;;;;-8.09;65.69;102211.20;1920803;75;21040;-65
2021/12/23 00:05:44;;;;;;;10.78;4.75;;;;;;;-8.08;65.79;102214.22;1920875;75;21550;-65
2021/12/23 00:08:13;;;;;;;12.33;5.28;;;;;;;-8.08;65.73;102209.11;1920881;75;21056;-65
2021/12/23 00:10:42;;;;;;;11.18;3.72;;;;;;;-8.07;65.82;102217.28;1920382;74;20987;-60
2021/12/23 00:13:11;;;;;;;18.67;5.62;;;;;;;-8.06;65.68;102212.63;1920394;75;21424;-61
2021/12/23 00:16:01;;;;;;;12.70;4.20;;;;;;;-8.05;65.50;102210.17;1920859;75;21034;-61
2021/12/23 00:18:42;;;;;;;8.20;3.47;;;;;;;-8.00;65.46;102213.02;1918122;74;21124;-60
2021/12/23 00:23:28;;;;;;;13.53;5.40;;;;;;;-8.05;65.39;102204.19;1915408;75;21049;-60
2021/12/23 00:26:00;;;;;;;10.80;3.90;;;;;;;-8.16;65.64;102199.30;1932807;74;21098;-60
2021/12/23 00:28:30;;;;;;;12.18;4.50;;;;;;;-8.19;65.66;102206.80;1939018;74;21197;-60
2021/12/23 00:30:59;;;;;;;12.88;3.25;;;;;;;-8.18;65.49;102207.67;1932345;74;21414;-59
2021/12/23 00:33:29;;;;;;;11.63;3.75;;;;;;;-8.17;65.36;102205.22;1882198;75;21470;-60
2021/12/23 00:35:58;;;;;;;8.18;4.47;;;;;;;-8.19;65.54;102208.45;1936395;74;21024;-60
2021/12/23 00:38:31;;;;;;;17.02;6.50;;;;;;;-8.24;65.42;102203.48;1879486;74;21011;-61
2021/12/23 00:41:00;;;;;;;17.48;5.67;;;;;;;-8.35;65.68;102200.27;1892747;75;21145;-60
2021/12/23 00:43:30;;;;;;;15.28;7.00;;;;;;;-8.40;66.13;102205.48;1874074;75;20996;-60
2021/12/23 00:46:00;;;;;;;15.95;6.37;;;;;;;-8.49;66.36;102197.28;1892767;76;21008;-63
2021/12/23 00:48:28;;;;;;;20.88;7.97;;;;;;;-8.55;66.61;102189.73;1902136;75;21051;-61
2021/12/23 00:50:58;;;;;;;19.50;7.03;;;;;;;-8.60;66.73;102192.38;1893356;75;21104;-61
2021/12/23 00:53:32;;;;;;;12.00;5.92;;;;;;;-8.62;67.01;102193.96;1892191;75;20999;-61
2021/12/23 00:55:57;;;;;;;22.62;7.25;;;;;;;-8.62;66.75;102189.25;1919934;74;21035;-62
2021/12/23 00:58:26;;;;;;;21.33;8.20;;;;;;;-8.66;66.91;102183.48;1877720;76;21125;-61
2021/12/23 01:00:54;;;;;;;20.85;7.05;;;;;;;-8.64;66.69;102182.77;1896376;75;21083;-62
2021/12/23 01:03:23;;;;;;;27.37;10.65;;;;;;;-8.58;66.40;102179.71;1901497;74;21121;-58
2021/12/23 01:05:52;;;;;;;29.10;10.13;;;;;;;-8.54;66.39;102179.10;1908742;74;21027;-60
2021/12/23 01:08:21;;;;;;;26.17;10.25;;;;;;;-8.51;66.23;102178.43;1860105;75;21036;-62
2021/12/23 01:10:55;;;;;;;23.20;9.45;;;;;;;-8.52;66.22;102176.25;1892725;75;21005;-61
2021/12/23 01:13:26;;;;;;;18.30;8.83;;;;;;;-8.56;66.34;102173.02;1870630;76;21055;-61
2021/12/23 01:16:04;;;;;;;19.50;8.93;;;;;;;-8.60;66.38;102164.29;1900573;75;21015;-63
2021/12/23 01:18:42;;;;;;;7.58;4.20;;;;;;;-8.60;66.47;102164.29;1940310;72;21549;-62
2021/12/23 01:21:16;;;;;;;15.00;6.72;;;;;;;-8.57;66.42;102159.37;1907083;75;21133;-62
2021/12/23 01:24:11;;;;;;;14.43;6.40;;;;;;;-8.55;66.08;102157.80;1907166;75;21031;-61
2021/12/23 01:26:41;;;;;;;12.70;5.55;;;;;;;-8.51;65.91;102160.55;1825461;78;21168;-62
2021/12/23 01:29:10;;;;;;;20.77;6.17;;;;;;;-8.49;65.71;102161.52;1840158;78;21076;-62
2021/12/23 01:31:39;;;;;;;9.90;5.00;;;;;;;-8.47;65.60;102159.94;1840148;78;21549;-62
2021/12/23 01:34:08;;;;;;;16.40;5.03;;;;;;;-8.49;65.59;102159.84;1840147;78;21084;-62
2021/12/23 01:36:37;;;;;;;16.90;7.08;;;;;;;-8.48;65.53;102156.89;1848749;77;21122;-62
2021/12/23 01:39:06;;;;;;;17.67;6.60;;;;;;;-8.46;65.41;102159.17;1862910;77;21142;-67
2021/12/23 01:41:35;;;;;;;18.62;7.72;;;;;;;-8.41;65.39;102156.44;1857526;77;21205;-68
2021/12/23 01:44:04;;;;;;;13.60;5.70;;;;;;;-8.36;65.67;102154.65;1840289;78;21072;-62
2021/12/23 01:46:33;;;;;;;24.40;7.05;;;;;;;-8.29;65.65;102157.19;1840248;78;21158;-61
2021/12/23 01:49:02;;;;;;;11.73;5.45;;;;;;;-8.22;65.58;102154.22;1840051;78;21056;-61
2021/12/23 01:51:31;;;;;;;14.65;5.10;;;;;;;-8.11;65.52;102151.03;1840155;78;21041;-63
2021/12/23 01:54:00;;;;;;;13.13;4.53;;;;;;;-7.98;65.47;102147.52;1837324;78;21696;-62
2021/12/23 01:56:29;;;;;;;13.90;6.35;;;;;;;-7.89;65.35;102146.78;1840145;78;21064;-62
2021/12/23 01:58:58;;;;;;;10.60;4.22;;;;;;;-7.81;65.31;102141.70;1840100;78;21174;-62
2021/12/23 02:01:27;;;;;;;10.23;4.55;;;;;;;-7.70;65.19;102142.34;1840137;78;21081;-63
2021/12/23 02:03:56;;;;;;;13.28;5.25;;;;;;;-7.63;65.09;102139.34;1840119;78;21088;-62
2021/12/23 02:06:34;;;;;;;;;;;;;;;;;;;;;
2021/12/23 02:09:14;;;;;;;10.32;3.08;;;;;;;-7.49;64.94;102143.95;1914166;75;21132;-62
2021/12/23 02:11:43;;;;;;;13.95;3.52;;;;;;;-7.41;64.83;102141.45;1914202;75;21124;-62
2021/12/23 02:14:12;;;;;;;14.13;3.95;;;;;;;-7.34;64.79;102141.78;1881420;76;21545;-67
2021/12/23 02:16:40;;;;;;;12.45;3.52;;;;;;;-7.28;64.68;102133.19;1866368;77;21108;-67
2021/12/23 02:19:19;;;;;;;13.03;4.67;;;;;;;-7.22;64.66;102139.52;1901867;75;21034;-66
2021/12/23 02:21:49;;;;;;;6.72;2.67;;;;;;;-7.16;64.58;102137.69;1863028;77;21058;-65
2021/12/23 02:24:18;;;;;;;12.25;5.90;;;;;;;-7.08;64.53;102135.55;1862816;76;21556;-65
2021/12/23 02:26:46;;;;;;;15.43;5.60;;;;;;;-7.04;64.44;102137.09;1849301;77;21046;-62
2021/12/23 02:29:15;;;;;;;9.18;3.80;;;;;;;-7.00;64.33;102126.62;1832204;78;21058;-64
2021/12/23 02:31:49;;;;;;;20.70;5.78;;;;;;;-6.97;64.27;102131.02;1849537;76;21569;-62
2021/12/23 02:34:17;;;;;;;;;;;;;;;-6.94;64.22;102131.20;1865776;77;21089;-61
2021/12/23 02:36:51;;;;;;;13.28;5.40;;;;;;;-6.90;64.17;102132.72;1914256;75;20130;-60
2021/12/23 02:39:22;;;;;;;15.72;5.80;;;;;;;-6.88;64.07;102139.20;1913358;75;21546;-61
2021/12/23 02:41:52;;;;;;;15.53;5.35;;;;;;;-6.85;64.12;102136.82;1905090;75;21107;-62
2021/12/23 02:44:22;;;;;;;10.45;3.98;;;;;;;-6.82;64.07;102138.28;1911707;75;21551;-59
2021/12/23 02:46:50;;;;;;;15.40;4.45;;;;;;;-6.78;64.03;102136.36;1904003;75;21472;-60
2021/12/23 02:49:20;;;;;;;5.45;3.67;;;;;;;-6.73;63.96;102136.21;1866009;77;21078;-60
2021/12/23 02:51:49;;;;;;;15.05;5.30;;;;;;;-6.70;63.91;102135.08;1921207;74;21505;-59
2021/12/23 02:54:17;;;;;;;23.50;7.33;;;;;;;-6.67;63.83;102135.66;1879801;76;21025;-60
2021/12/23 02:56:46;;;;;;;14.83;2.92;;;;;;;-6.69;63.94;102140.70;1914296;75;21015;-62
2021/12/23 02:59:15;;;;;;;12.10;6.28;;;;;;;-6.69;63.91;102143.25;1879893;76;21555;-62
2021/12/23 03:01:44;;;;;;;12.73;5.05;;;;;;;-6.65;63.87;102140.05;1914341;75;21034;-62
2021/12/23 03:04:12;;;;;;;5.97;3.50;;;;;;;-6.60;63.86;102142.47;1879896;76;21132;-62
2021/12/23 03:06:41;;;;;;;10.55;4.40;;;;;;;-6.59;63.81;102153.59;1914113;75;21116;-63
2021/12/23 03:09:10;;;;;;;8.13;3.50;;;;;;;-6.57;63.87;102144.70;1877624;76;21150;-62
2021/12/23 03:11:43;;;;;;;9.70;4.35;;;;;;;-6.55;63.83;102146.95;1952417;73;21070;-62
2021/12/23 03:14:14;;;;;;;22.42;5.45;;;;;;;-6.50;63.75;102148.08;1952636;73;21088;-62
2021/12/23 03:16:42;;;;;;;24.15;6.75;;;;;;;-6.47;63.69;102148.25;1952553;73;21121;-62
2021/12/23 03:19:11;;;;;;;19.32;4.97;;;;;;;-6.44;63.60;102150.55;1952357;73;21023;-62
2021/12/23 03:21:39;;;;;;;15.25;4.85;;;;;;;-6.41;63.58;102149.44;1952409;73;20997;-62
2021/12/23 03:24:08;;;;;;;5.28;2.50;;;;;;;-6.39;63.60;102157.21;1952385;73;21054;-62
2021/12/23 03:26:37;;;;;;;15.38;6.17;;;;;;;-6.36;63.65;102149.70;1952545;73;21048;-62
2021/12/23 03:29:08;;;;;;;10.72;5.03;;;;;;;-6.35;63.62;102159.54;1952409;73;21039;-62
2021/12/23 03:31:36;;;;;;;25.23;10.50;;;;;;;-6.33;63.65;102160.09;1952367;73;21023;-62
2021/12/23 03:34:05;;;;;;;13.58;8.53;;;;;;;-6.30;63.57;102150.41;1952420;73;21003;-62
2021/12/23 03:36:34;;;;;;;13.98;8.15;;;;;;;-6.29;63.61;102156.01;1952525;73;21059;-61
2021/12/23 03:39:04;;;;;;;40.28;20.35;;;;;;;-6.28;63.73;102165.47;1952421;73;21032;-62
2021/12/23 03:41:33;;;;;;;46.60;24.65;;;;;;;-6.25;63.66;102164.36;1956919;73;21009;-59
2021/12/23 03:44:02;;;;;;;72.15;34.78;;;;;;;-6.22;63.61;102167.94;1972158;73;21018;-61
2021/12/23 03:46:31;;;;;;;73.40;34.73;;;;;;;-6.19;63.60;102177.91;1971947;73;21468;-61
2021/12/23 03:49:00;;;;;;;26.20;11.83;;;;;;;-6.16;63.53;102183.17;1972056;73;21041;-60
2021/12/23 03:51:29;;;;;;;18.27;6.37;;;;;;;-6.14;63.50;102184.12;1972213;73;21091;-58
2021/12/23 03:53:58;;;;;;;18.05;7.37;;;;;;;-6.11;63.47;102177.89;1972072;73;21300;-59
2021/12/23 03:56:26;;;;;;;14.30;6.85;;;;;;;-6.07;63.40;102192.25;1972108;73;21099;-59
2021/12/23 03:58:55;;;;;;;25.70;9.45;;;;;;;-6.05;63.36;102185.51;1972055;73;21013;-60
2021/12/23 04:01:26;;;;;;;20.40;8.70;;;;;;;-6.02;63.34;102190.77;1972021;73;21037;-60
2021/12/23 04:03:55;;;;;;;73.95;28.47;;;;;;;-5.97;63.30;102192.72;1972183;73;21095;-59
2021/12/23 04:06:26;;;;;;;78.90;25.20;;;;;;;-5.93;63.26;102198.04;1972086;73;21037;-59
2021/12/23 04:08:55;;;;;;;78.37;27.37;;;;;;;-5.89;63.29;102188.82;1968254;72;21050;-60
2021/12/23 04:11:24;;;;;;;61.15;20.60;;;;;;;-5.88;63.29;102186.34;1961224;73;21453;-60
2021/12/23 04:13:53;;;;;;;48.33;16.30;;;;;;;-5.86;63.30;102183.86;1961384;73;21457;-60
2021/12/23 04:16:23;;;;;;;23.65;8.58;;;;;;;-5.83;63.29;102188.74;1961387;73;21084;-60
2021/12/23 04:18:54;;;;;;;6.95;3.80;;;;;;;-5.82;63.33;102193.05;1961363;73;21445;-60
2021/12/23 04:21:22;;;;;;;14.83;5.05;;;;;;;-5.84;63.31;102195.95;1961346;73;21083;-60
2021/12/23 04:23:52;;;;;;;10.88;6.05;;;;;;;-5.85;63.34;102194.58;1961277;73;21096;-61
2021/12/23 04:26:20;;;;;;;11.38;5.58;;;;;;;-5.84;63.39;102192.51;1961378;73;21528;-60
2021/12/23 04:28:49;;;;;;;11.65;4.70;;;;;;;-5.80;63.31;102188.42;1961344;72;21018;-61
2021/12/23 04:31:21;;;;;;;10.50;5.17;;;;;;;-5.74;63.42;102183.59;1961329;73;21531;-61
2021/12/23 04:33:52;;;;;;;9.28;3.85;;;;;;;-5.69;63.40;102184.30;1961305;73;21022;-60
2021/12/23 04:36:22;;;;;;;17.37;5.30;;;;;;;-5.63;63.67;102187.57;1961282;73;21155;-61
2021/12/23 04:38:50;;;;;;;15.95;4.78;;;;;;;-5.58;63.55;102191.25;1961448;73;20979;-60
2021/12/23 04:41:20;;;;;;;7.58;3.87;;;;;;;-5.51;63.64;102197.59;1960007;73;21548;-60
2021/12/23 04:43:49;;;;;;;11.43;3.35;;;;;;;-5.45;63.56;102206.45;1951736;73;21642;-60
2021/12/23 04:46:17;;;;;;;9.75;3.50;;;;;;;-5.37;63.56;102206.83;1951711;73;21501;-60
2021/12/23 04:48:47;;;;;;;6.53;4.12;;;;;;;-5.32;63.52;102203.22;1951718;73;21465;-60
2021/12/23 04:51:18;;;;;;;3.65;2.60;;;;;;;-5.29;63.42;102202.10;1951778;73;21488;-60
2021/12/23 04:53:48;;;;;;;6.03;3.08;;;;;;;-5.25;63.38;102204.00;1951827;73;21128;-60
2021/12/23 04:56:18;;;;;;;5.75;3.60;;;;;;;-5.23;63.29;102206.24;1951765;73;21031;-60
2021/12/23 04:58:47;;;;;;;9.25;4.35;;;;;;;-5.22;63.28;102216.98;1951877;73;21097;-57
2021/12/23 05:01:21;;;;;;;7.67;3.15;;;;;;;-5.22;63.23;102213.13;1951759;73;21520;-57
2021/12/23 05:03:50;;;;;;;11.75;4.40;;;;;;;-5.25;63.27;102221.98;1951827;73;21090;-57
2021/12/23 05:06:19;;;;;;;2.27;1.85;;;;;;;-5.36;63.54;102215.44;1951842;73;21179;-57
2021/12/23 05:08:48;;;;;;;5.75;3.00;;;;;;;-5.41;63.35;102215.19;1952061;73;21046;-57
2021/12/23 05:11:17;;;;;;;8.73;3.52;;;;;;;-5.48;63.24;102214.03;1952140;73;21151;-57
2021/12/23 05:13:50;;;;;;;8.65;3.37;;;;;;;-5.54;63.18;102218.83;1952225;73;21522;-57
2021/12/23 05:16:20;;;;;;;12.97;4.57;;;;;;;-5.60;63.35;102221.09;1952435;73;21102;-57
2021/12/23 05:18:49;;;;;;;5.78;2.95;;;;;;;-5.63;63.31;102220.93;1952339;73;21249;-57
2021/12/23 05:21:19;;;;;;;10.00;4.33;;;;;;;-5.66;63.40;102228.50;1952140;73;21035;-57
2021/12/23 05:23:57;;;;;;;;;;;;;;;;;;;;;
2021/12/23 05:26:37;;;;;;;9.53;3.83;;;;;;;-5.76;63.89;102232.25;1991859;72;21189;-60
2021/12/23 05:29:09;;;;;;;4.20;1.75;;;;;;;-5.75;63.66;102245.98;1992093;72;21012;-59
2021/12/23 05:31:39;;;;;;;6.53;3.15;;;;;;;-5.74;63.56;102240.03;1992139;72;21442;-59
2021/12/23 05:34:07;;;;;;;3.17;1.75;;;;;;;-5.73;63.47;102230.27;1992151;72;21570;-60
2021/12/23 05:36:36;;;;;;;3.22;1.87;;;;;;;-5.75;63.51;102239.57;1992014;72;21047;-60
2021/12/23 05:39:05;;;;;;;6.22;2.20;;;;;;;-5.72;63.54;102234.58;1991959;72;21085;-61
2021/12/23 05:41:34;;;;;;;6.80;2.33;;;;;;;-5.69;63.45;102237.31;1995140;71;21389;-61
2021/12/23 05:44:06;;;;;;;4.95;2.85;;;;;;;-5.65;63.36;102232.81;2005606;71;20982;-60
2021/12/23 05:46:35;;;;;;;3.77;1.87;;;;;;;-5.63;63.32;102241.46;2005549;71;21527;-60
2021/12/23 05:49:04;;;;;;;3.10;1.95;;;;;;;-5.60;63.31;102245.89;2005528;71;21069;-60
2021/12/23 05:51:32;;;;;;;8.05;2.47;;;;;;;-5.56;63.29;102240.97;2005488;71;21021;-60
2021/12/23 05:54:04;;;;;;;4.95;2.37;;;;;;;-5.54;63.21;102244.50;2005662;71;21029;-60
2021/12/23 05:56:33;;;;;;;9.78;2.87;;;;;;;-5.50;63.18;102246.41;2005572;71;20990;-61
2021/12/23 05:59:02;;;;;;;7.78;2.20;;;;;;;-5.49;63.13;102245.62;2005683;71;21512;-59
2021/12/23 06:01:34;;;;;;;4.55;1.95;;;;;;;-5.47;63.12;102250.42;2005651;71;21130;-59
2021/12/23 06:04:03;;;;;;;8.25;2.75;;;;;;;-5.43;63.08;102255.31;2005397;71;21010;-59
2021/12/23 06:06:31;;;;;;;6.92;2.75;;;;;;;-5.17;63.23;102257.89;2005635;71;21500;-59
2021/12/23 06:09:00;;;;;;;2.58;1.70;;;;;;;-3.96;62.76;102248.59;2005602;71;20986;-59
2021/12/23 06:11:29;;;;;;;4.70;2.35;;;;;;;-2.65;61.58;102257.92;2005512;71;21115;-59
2021/12/23 06:13:57;;;;;;;3.67;2.30;;;;;;;-1.40;60.71;102249.61;2005488;71;21103;-59
2021/12/23 06:16:26;;;;;;;5.17;2.47;;;;;;;-0.37;59.61;102245.55;2005474;71;21021;-61
2021/12/23 06:19:15;;;;;;;8.65;2.92;;;;;;;0.52;58.94;102254.87;2005617;71;21095;-59
2021/12/23 06:21:44;;;;;;;6.55;2.58;;;;;;;1.74;57.23;102242.36;1859644;77;21124;-59
2021/12/23 06:24:13;;;;;;;7.20;2.77;;;;;;;1.74;57.23;102242.36;1859679;77;21034;-59
2021/12/23 06:26:42;;;;;;;4.85;2.75;;;;;;;2.51;56.62;102244.33;1859582;77;21050;-59
2021/12/23 06:29:10;;;;;;;3.85;2.08;;;;;;;3.14;55.64;102241.92;1859476;77;21062;-59
2021/12/23 06:31:39;;;;;;;5.87;2.30;;;;;;;3.79;54.81;102252.40;1859570;77;21077;-59
2021/12/23 06:34:08;;;;;;;7.67;2.20;;;;;;;4.31;53.80;102252.59;1859673;77;21501;-59
2021/12/23 06:36:37;;;;;;;6.62;1.92;;;;;;;4.55;52.51;102256.75;1859678;77;21086;-59
2021/12/23 06:39:06;;;;;;;8.55;2.67;;;;;;;4.68;52.43;102252.97;1859566;77;21027;-59
2021/12/23 06:41:35;;;;;;;3.55;1.77;;;;;;;5.19;51.81;102253.84;1865250;76;21007;-60
2021/12/23 06:44:04;;;;;;;3.95;2.40;;;;;;;5.78;50.57;102251.17;1883293;76;21031;-59
2021/12/23 06:46:33;;;;;;;3.62;1.52;;;;;;;6.11;49.55;102252.66;1883372;76;21051;-60
2021/12/23 06:49:01;;;;;;;4.05;1.87;;;;;;;6.43;48.37;102247.95;1883202;76;21086;-60
2021/12/23 06:51:31;;;;;;;3.17;1.67;;;;;;;6.94;48.18;102243.22;1883228;76;21588;-59
2021/12/23 06:54:02;;;;;;;3.65;1.62;;;;;;;7.33;47.39;102247.13;1883241;76;21513;-60
2021/12/23 06:56:30;;;;;;;6.15;3.42;;;;;;;7.63;46.56;102247.94;1883358;76;21098;-60
2021/12/23 06:58:59;;;;;;;11.48;2.15;;;;;;;7.82;45.61;102248.74;1883360;76;21086;-60
2021/12/23 07:01:28;;;;;;;4.30;1.90;;;;;;;8.00;44.94;102242.12;1883380;76;21458;-60
2021/12/23 07:04:06;;;;;;;3.47;1.72;;;;;;;8.24;43.99;102237.64;1883246;76;21548;-60
2021/12/23 07:06:35;;;;;;;14.03;2.55;;;;;;;8.58;43.78;102238.80;1882986;76;21514;-61
2021/12/23 07:09:05;;;;;;;9.08;1.95;;;;;;;8.72;42.63;102237.37;1883330;76;21051;-60
2021/12/23 07:11:34;;;;;;;3.12;1.52;;;;;;;8.95;42.29;102247.27;1883203;76;21047;-60
2021/12/23 07:14:03;;;;;;;3.05;1.92;;;;;;;9.00;41.47;102245.90;1883283;76;21560;-60
2021/12/23 07:16:33;;;;;;;4.25;1.70;;;;;;;8.98;41.26;102250.30;1883327;76;21157;-59
2021/12/23 07:19:02;;;;;;;4.40;1.70;;;;;;;9.15;40.87;102252.36;1883228;76;21086;-61
2021/12/23 07:21:30;;;;;;;3.00;1.60;;;;;;;9.64;40.19;102242.64;1883317;75;21035;-59
2021/12/23 07:24:00;;;;;;;2.42;1.25;;;;;;;10.16;39.29;102246.84;1883476;76;21050;-60
2021/12/23 07:26:29;;;;;;;3.62;1.40;;;;;;;10.56;38.42;102248.97;1883284;76;21513;-60
2021/12/23 07:28:57;;;;;;;2.65;1.50;;;;;;;10.76;37.65;102253.48;1883268;76;21192;-59
2021/12/23 07:31:26;;;;;;;2.37;1.40;;;;;;;10.91;36.85;102254.14;1883463;76;21023;-60
2021/12/23 07:33:55;;;;;;;5.85;1.52;;;;;;;11.26;36.54;102256.63;1883146;76;21207;-60
2021/12/23 07:36:27;;;;;;;7.45;1.57;;;;;;;11.43;36.48;102254.54;1883396;76;21059;-59
2021/12/23 07:38:58;;;;;;;5.72;1.50;;;;;;;10.14;37.30;102258.70;1883266;76;21109;-59
2021/12/23 07:41:28;;;;;;;4.05;1.62;;;;;;;9.94;37.32;102262.04;1880076;76;21115;-59
2021/12/23 07:43:59;;;;;;;2.45;1.30;;;;;;;10.38;36.79;102260.20;1915610;75;21027;-59
2021/12/23 07:46:33;;;;;;;3.65;1.50;;;;;;;10.84;36.04;102253.81;1915400;75;21133;-59
2021/12/23 07:49:02;;;;;;;3.02;1.70;;;;;;;11.20;35.36;102257.61;1915445;75;21036;-59
2021/12/23 07:51:31;;;;;;;6.75;1.75;;;;;;;11.53;34.14;102252.16;1915556;75;21516;-59
2021/12/23 07:53:59;;;;;;;6.70;1.90;;;;;;;11.90;34.28;102248.84;1915452;75;21177;-60
2021/12/23 07:56:28;;;;;;;5.28;1.60;;;;;;;12.05;32.80;102254.25;1915488;75;21180;-60
2021/12/23 07:58:57;;;;;;;2.90;1.40;;;;;;;12.19;32.86;102251.33;1915397;75;21116;-61
2021/12/23 08:01:26;;;;;;;2.70;1.40;;;;;;;12.21;31.74;102256.55;1915574;75;21482;-59
2021/12/23 08:03:55;;;;;;;2.30;1.35;;;;;;;12.05;31.68;102253.38;1915513;75;21577;-59
2021/12/23 08:06:23;;;;;;;4.47;1.72;;;;;;;11.42;32.08;102242.70;1915563;75;21116;-59
2021/12/23 08:08:52;;;;;;;4.28;2.00;;;;;;;11.48;32.11;102246.09;1915456;75;21054;-59
2021/12/23 08:11:21;;;;;;;2.58;1.42;;;;;;;11.65;30.82;102251.51;1915347;75;21015;-59
2021/12/23 08:13:50;;;;;;;5.03;1.75;;;;;;;11.59;30.11;102247.22;1915485;75;21482;-59
2021/12/23 08:16:19;;;;;;;3.85;2.12;;;;;;;11.59;30.29;102245.44;1915621;75;21563;-59
2021/12/23 08:18:48;;;;;;;4.12;1.60;;;;;;;11.79;29.97;102242.42;1915561;75;21153;-58
2021/12/23 08:21:16;;;;;;;2.98;1.50;;;;;;;11.76;29.24;102242.47;1915620;74;21074;-59
2021/12/23 08:23:46;;;;;;;8.95;1.85;;;;;;;12.07;29.81;102240.55;1915307;75;21132;-59
2021/12/23 08:26:16;;;;;;;2.70;1.12;;;;;;;12.73;29.64;102236.42;1915569;75;21116;-58
2021/12/23 08:28:45;;;;;;;4.50;1.50;;;;;;;12.80;29.39;102236.26;1915446;75;21525;-59
2021/12/23 08:31:14;;;;;;;3.10;1.57;;;;;;;12.97;29.54;102231.44;1915429;75;21046;-59
2021/12/23 08:33:42;;;;;;;7.03;2.30;;;;;;;13.01;29.10;102227.80;1915451;75;21163;-59
2021/12/23 08:36:11;;;;;;;3.58;1.62;;;;;;;13.21;29.03;102226.43;1915389;75;21115;-59
2021/12/23 08:38:41;;;;;;;5.12;2.00;;;;;;;13.03;28.56;102227.30;1915524;75;21042;-60
2021/12/23 08:41:10;;;;;;;2.42;1.50;;;;;;;12.62;29.24;102230.52;1915641;75;21497;-61
2021/12/23 08:43:39;;;;;;;4.33;1.67;;;;;;;11.13;30.16;102238.38;1918755;74;21047;-61
2021/12/23 08:46:08;;;;;;;12.88;3.45;;;;;;;9.08;31.54;102238.39;1918659;75;21078;-61
2021/12/23 08:48:36;;;;;;;5.78;2.80;;;;;;;7.16;33.16;102248.46;1918530;75;21055;-61
2021/12/23 08:51:05;;;;;;;8.80;2.67;;;;;;;5.83;34.78;102256.44;1918603;75;21031;-61
2021/12/23 08:53:34;;;;;;;9.15;3.80;;;;;;;4.49;36.47;102263.22;1918743;74;21539;-61
2021/12/23 08:56:04;;;;;;;11.78;3.25;;;;;;;3.45;38.07;102266.27;1918727;75;21120;-61
2021/12/23 08:58:33;;;;;;;5.47;2.77;;;;;;;2.47;39.27;102266.79;1918606;75;20999;-61
2021/12/23 09:01:02;;;;;;;4.83;1.95;;;;;;;1.76;40.37;102268.36;1918692;75;21024;-61
2021/12/23 09:03:32;;;;;;;4.35;2.87;;;;;;;1.30;41.09;102271.22;1918515;75;21506;-59
2021/12/23 09:06:03;;;;;;;7.03;2.10;;;;;;;1.22;41.35;102268.44;1918589;74;21027;-60
2021/12/23 09:08:32;;;;;;;4.55;2.45;;;;;;;0.99;41.62;102276.08;1918610;74;21028;-60
2021/12/23 09:11:01;;;;;;;5.05;2.00;;;;;;;0.72;42.07;102270.63;1918735;74;21478;-59
2021/12/23 09:13:31;;;;;;;7.45;3.02;;;;;;;0.67;42.45;102274.41;1918695;75;21100;-59
2021/12/23 09:16:00;;;;;;;6.17;2.58;;;;;;;0.92;42.49;102276.33;1918492;74;21007;-60
2021/12/23 09:18:29;;;;;;;9.58;3.77;;;;;;;1.79;41.77;102272.34;1918580;75;21126;-59
2021/12/23 09:20:59;;;;;;;6.65;3.37;;;;;;;2.33;40.71;102269.97;1918542;75;21078;-58
2021/12/23 09:23:28;;;;;;;8.55;3.60;;;;;;;2.02;40.96;102269.34;1910976;74;21216;-59
2021/12/23 09:25:58;;;;;;;10.90;3.15;;;;;;;3.36;40.08;102260.92;1910163;74;21051;-59
2021/12/23 09:28:42;;;;;;;4.10;3.00;;;;;;;5.62;37.35;102259.79;1909978;75;21101;-59
2021/12/23 09:33:51;;;;;;;6.87;3.92;;;;;;;8.45;34.31;102253.75;1909935;75;21071;-59
2021/12/23 09:36:19;;;;;;;5.45;2.62;;;;;;;9.58;33.01;102251.92;1909993;75;21540;-59
2021/12/23 09:38:48;;;;;;;7.92;3.72;;;;;;;9.90;31.96;102250.68;1909896;75;21545;-60
2021/12/23 09:41:20;;;;;;;5.17;2.77;;;;;;;10.34;31.98;102247.09;1909929;75;21067;-60
2021/12/23 09:43:50;;;;;;;7.62;3.50;;;;;;;10.42;31.95;102250.05;1909530;75;21115;-60
2021/12/23 09:46:24;;;;;;;5.53;2.52;;;;;;;9.20;32.48;102251.88;1909547;75;21171;-60
2021/12/23 09:48:53;;;;;;;5.92;3.05;;;;;;;9.08;33.09;102253.29;1909476;75;21108;-60
2021/12/23 09:51:24;;;;;;;7.42;3.42;;;;;;;9.83;32.69;102242.01;1909400;75;21477;-59
2021/12/23 09:54:05;;;;;;;6.28;3.00;;;;;;;10.77;31.64;102240.75;1909469;75;21014;-59
2021/12/23 09:56:35;;;;;;;7.37;3.02;;;;;;;11.29;31.01;102233.71;1909502;75;21509;-60
2021/12/23 09:59:07;;;;;;;5.65;2.87;;;;;;;11.39;30.78;102234.41;1909496;75;21132;-60
2021/12/23 10:01:37;;;;;;;10.78;3.65;;;;;;;11.18;30.85;102229.95;1909409;75;21091;-60
2021/12/23 10:04:06;;;;;;;11.90;3.40;;;;;;;10.81;31.03;102234.52;1909557;75;21464;-60
2021/12/23 10:06:35;;;;;;;12.05;2.75;;;;;;;8.57;32.66;102244.92;1909472;75;21066;-59
2021/12/23 10:09:05;;;;;;;6.08;3.22;;;;;;;6.77;34.76;102243.66;1909477;75;21074;-59
2021/12/23 10:12:26;;;;;;;7.45;3.40;;;;;;;5.75;36.24;102250.28;1909484;75;21058;-60
2021/12/23 10:32:12;;;;;;;5.15;2.27;;;;;;;9.22;32.66;102218.56;1921947;75;21038;-60
2021/12/23 10:39:47;;;;;;;5.83;2.87;;;;;;;9.63;31.37;102209.36;1921869;75;21042;-60
2021/12/23 10:42:28;;;;;;;8.48;3.25;;;;;;;9.71;31.27;102208.40;1926285;74;21093;-61
2021/12/23 10:45:02;;;;;;;5.90;3.25;;;;;;;9.73;30.69;102217.14;1947174;74;21117;-62
2021/12/23 10:47:54;;;;;;;6.62;2.80;;;;;;;9.36;30.97;102213.61;1947046;74;21035;-63
2021/12/23 10:50:26;;;;;;;5.47;2.90;;;;;;;9.55;30.93;102212.50;1918007;73;21057;-62
2021/12/23 10:53:02;;;;;;;6.12;2.62;;;;;;;9.93;30.67;102216.45;1910108;74;20991;-61
2021/12/23 10:58:17;;;;;;;6.55;2.90;;;;;;;10.30;30.19;102221.21;1921837;75;21014;-62
2021/12/23 11:00:58;;;;;;;6.00;2.20;;;;;;;9.56;30.64;102227.41;1919263;74;21167;-61
2021/12/23 11:03:40;;;;;;;7.95;3.00;;;;;;;9.22;31.42;102230.39;1899554;75;21022;-62
2021/12/23 11:06:19;;;;;;;6.17;2.87;;;;;;;7.59;33.19;102231.34;1889869;76;21043;-62
2021/12/23 11:09:14;;;;;;;7.67;2.95;;;;;;;5.98;34.99;102237.36;1889731;76;21238;-62
2021/12/23 11:28:58;;;;;;;7.78;2.87;;;;;;;2.68;38.92;102262.39;1890178;75;21139;-62
2021/12/23 11:36:45;;;;;;;6.47;3.50;;;;;;;3.04;38.35;102267.80;1890015;76;21115;-58
2021/12/23 11:44:00;;;;;;;8.43;3.45;;;;;;;1.39;40.41;102272.73;1857735;77;21115;-62
2021/12/23 11:46:48;;;;;;;12.53;3.05;;;;;;;1.00;41.04;102273.92;1823540;79;21118;-63
2021/12/23 11:49:13;;;;;;;5.03;3.00;;;;;;;0.74;41.52;102275.03;1827458;78;21089;-62
2021/12/23 11:52:03;;;;;;;7.92;3.47;;;;;;;0.50;41.92;102280.84;1887088;75;21087;-63
2021/12/23 11:54:20;;;;;;;8.50;3.20;;;;;;;0.23;42.31;102275.37;1892684;75;21042;-63
2021/12/23 11:56:58;;;;;;;11.60;3.75;;;;;;;-0.01;42.58;102272.95;1899432;75;21611;-63
2021/12/23 11:59:26;;;;;;;4.45;2.45;;;;;;;-0.17;42.75;102280.67;1899370;75;21019;-63
2021/12/23 12:01:56;;;;;;;6.85;3.00;;;;;;;-0.35;43.00;102277.53;1899555;75;21046;-66
2021/12/23 12:04:28;;;;;;;8.98;3.37;;;;;;;-0.53;43.28;102286.50;1899341;75;21050;-66
2021/12/23 12:06:58;;;;;;;8.25;3.10;;;;;;;-0.61;43.72;102278.89;1895769;75;21111;-62
2021/12/23 12:09:35;;;;;;;6.12;2.67;;;;;;;-0.60;43.52;102275.49;1858108;77;21055;-62
2021/12/23 12:12:09;;;;;;;6.95;3.00;;;;;;;-0.34;43.28;102275.42;1859429;76;21044;-64
2021/12/23 12:14:41;;;;;;;5.25;2.52;;;;;;;0.36;42.21;102277.46;1858082;77;21064;-63
2021/12/23 12:17:33;;;;;;;7.67;2.90;;;;;;;0.56;41.67;102271.95;1857911;77;21056;-63
2021/12/23 12:20:23;;;;;;;6.55;2.85;;;;;;;1.18;41.09;102268.31;1857960;77;21068;-65
2021/12/23 12:22:57;;;;;;;4.60;2.15;;;;;;;1.83;39.94;102272.86;1860127;76;21091;-65
2021/12/23 12:25:29;;;;;;;5.78;2.90;;;;;;;1.71;39.96;102273.45;1857957;77;21088;-64
2021/12/23 12:28:00;;;;;;;4.58;1.92;;;;;;;1.22;40.70;102277.52;1858094;77;21213;-63
2021/12/23 12:30:50;;;;;;;16.82;2.52;;;;;;;0.83;41.43;102281.28;1857995;77;21107;-63
2021/12/23 12:33:28;;;;;;;9.25;2.77;;;;;;;0.46;41.96;102279.91;1858041;77;21083;-63
2021/12/23 12:36:05;;;;;;;5.60;2.72;;;;;;;0.22;42.41;102284.39;1857905;77;21032;-63
2021/12/23 12:38:46;;;;;;;5.35;2.62;;;;;;;-0.08;42.89;102291.31;1882764;76;21044;-64
2021/12/23 12:41:19;;;;;;;6.50;2.30;;;;;;;-0.24;43.21;102286.50;1886786;76;21118;-64